This is the latest recevied weather packets stored in our database for station/object VA3BOO. If no packets are shown the sender has not sent any weather packets the latest 10 day(s).
| Time | Temp. | Humidity | Pressure | Rain* | Wind** | Luminosity | Snow |
|---|---|---|---|---|---|---|---|
| 1777304405 | 18.89° C | 35% | 1024.7 hPa | 0 mm | - | 739 W/m² | - |
| 1777304104 | 18.89° C | 35% | 1024.7 hPa | 0 mm | - | 732 W/m² | - |
| 1777303805 | 19.44° C | 34% | 1024.8 hPa | 0 mm | - | 726 W/m² | - |
| 1777303504 | 19.44° C | 35% | 1024.7 hPa | 0 mm | - | 716 W/m² | - |
| 1777303205 | 18.89° C | 35% | 1024.5 hPa | 0 mm | - | 706 W/m² | - |
| 1777302904 | 18.33° C | 37% | 1024.5 hPa | 0 mm | - | 698 W/m² | - |
| 1777302605 | 18.33° C | 36% | 1024.8 hPa | 0 mm | - | 687 W/m² | - |
| 1777302305 | 17.78° C | 37% | 1024.8 hPa | 0 mm | - | 678 W/m² | - |
| 1777302005 | 17.78° C | 40% | 1024.6 hPa | 0 mm | - | 667 W/m² | - |
| 1777301704 | 17.78° C | 39% | 1024.7 hPa | 0 mm | - | 655 W/m² | - |
| 1777301405 | 17.78° C | 39% | 1024.6 hPa | 0 mm | - | 643 W/m² | - |
| 1777301104 | 17.78° C | 39% | 1024.7 hPa | 0 mm | - | 365 W/m² | - |
| 1777300805 | 17.22° C | 41% | 1024.9 hPa | 0 mm | - | 56 W/m² | - |
| 1777300505 | 16.67° C | 44% | 1025 hPa | 0 mm | - | 55 W/m² | - |
| 1777300205 | 16.11° C | 44% | 1024.9 hPa | 0 mm | - | 69 W/m² | - |
| 1777299905 | 16.11° C | 44% | 1024.9 hPa | 0 mm | - | 369 W/m² | - |
| 1777299604 | 16.67° C | 44% | 1025 hPa | 0 mm | - | 568 W/m² | - |
| 1777299304 | 16.11° C | 49% | 1025 hPa | 0 mm | - | 552 W/m² | - |
| 1777299004 | 15.56° C | 50% | 1025.1 hPa | 0 mm | - | 539 W/m² | - |
| 1777298705 | 15.56° C | 50% | 1025.1 hPa | 0 mm | - | 524 W/m² | - |
| 1777298405 | 15° C | 48% | 1025 hPa | 0 mm | - | 509 W/m² | - |
| 1777298105 | 14.44° C | 51% | 1025.1 hPa | 0 mm | - | 495 W/m² | - |
| 1777297804 | 15° C | 49% | 1025.1 hPa | 0 mm | - | 481 W/m² | - |
| 1777297505 | 15° C | 49% | 1025 hPa | 0 mm | - | 465 W/m² | - |
| 1777297204 | 15° C | 48% | 1025.1 hPa | 0 mm | - | 453 W/m² | - |
* Rain latest hour (hover to see other rain measurements)
** Current wind speed in m/s (hover to see current wind gust speed)